sensor_id;sensor_type;location;lat;lon;timestamp;pressure;altitude;pressure_sealevel;temperature;humidity
23229;BME280;11783;50.350;6.576;2023-03-05T00:00:11;96583.91;;;3.50;92.44
23229;BME280;11783;50.350;6.576;2023-03-05T00:02:37;96582.28;;;3.49;92.42
23229;BME280;11783;50.350;6.576;2023-03-05T00:05:02;96588.16;;;3.51;92.29
23229;BME280;11783;50.350;6.576;2023-03-05T00:07:27;96578.66;;;3.50;92.19
23229;BME280;11783;50.350;6.576;2023-03-05T00:09:53;96579.47;;;3.50;91.88
23229;BME280;11783;50.350;6.576;2023-03-05T00:12:18;96580.66;;;3.48;92.47
23229;BME280;11783;50.350;6.576;2023-03-05T00:14:43;96573.59;;;3.48;92.21
23229;BME280;11783;50.350;6.576;2023-03-05T00:17:09;96568.94;;;3.50;91.50
23229;BME280;11783;50.350;6.576;2023-03-05T00:19:34;96575.22;;;3.49;92.04
23229;BME280;11783;50.350;6.576;2023-03-05T00:22:00;96575.41;;;3.48;92.19
23229;BME280;11783;50.350;6.576;2023-03-05T00:24:25;96577.22;;;3.47;91.95
23229;BME280;11783;50.350;6.576;2023-03-05T00:26:50;96573.78;;;3.47;92.01
23229;BME280;11783;50.350;6.576;2023-03-05T00:29:18;96572.97;;;3.46;92.07
23229;BME280;11783;50.350;6.576;2023-03-05T00:31:44;96564.47;;;3.44;92.05
23229;BME280;11783;50.350;6.576;2023-03-05T00:34:12;96569.28;;;3.41;92.51
23229;BME280;11783;50.350;6.576;2023-03-05T00:36:40;96566.84;;;3.39;92.70
23229;BME280;11783;50.350;6.576;2023-03-05T00:39:06;96565.84;;;3.40;91.99
23229;BME280;11783;50.350;6.576;2023-03-05T00:41:32;96560.41;;;3.42;92.04
23229;BME280;11783;50.350;6.576;2023-03-05T00:43:57;96558.78;;;3.41;92.54
23229;BME280;11783;50.350;6.576;2023-03-05T00:46:23;96555.16;;;3.42;92.16
23229;BME280;11783;50.350;6.576;2023-03-05T00:48:48;96552.53;;;3.42;92.09
23229;BME280;11783;50.350;6.576;2023-03-05T00:51:13;96545.44;;;3.42;91.62
23229;BME280;11783;50.350;6.576;2023-03-05T00:53:39;96552.53;;;3.42;91.62
23229;BME280;11783;50.350;6.576;2023-03-05T00:56:05;96539.78;;;3.39;91.79
23229;BME280;11783;50.350;6.576;2023-03-05T00:58:31;96548.66;;;3.38;91.79
23229;BME280;11783;50.350;6.576;2023-03-05T01:00:57;96547.84;;;3.37;92.09
23229;BME280;11783;50.350;6.576;2023-03-05T01:03:24;96553.28;;;3.36;92.13
23229;BME280;11783;50.350;6.576;2023-03-05T01:05:49;96539.34;;;3.35;92.04
23229;BME280;11783;50.350;6.576;2023-03-05T01:08:14;96541.97;;;3.35;91.60
23229;BME280;11783;50.350;6.576;2023-03-05T01:10:41;96533.44;;;3.33;91.87
23229;BME280;11783;50.350;6.576;2023-03-05T01:13:06;96536.88;;;3.33;92.25
23229;BME280;11783;50.350;6.576;2023-03-05T01:15:31;96530.63;;;3.34;92.08
23229;BME280;11783;50.350;6.576;2023-03-05T01:17:57;96532.44;;;3.34;91.75
23229;BME280;11783;50.350;6.576;2023-03-05T01:20:22;96520.31;;;3.33;91.93
23229;BME280;11783;50.350;6.576;2023-03-05T01:22:48;96518.50;;;3.33;91.43
23229;BME280;11783;50.350;6.576;2023-03-05T01:25:14;96516.66;;;3.34;91.77
23229;BME280;11783;50.350;6.576;2023-03-05T01:27:40;96519.28;;;3.34;91.67
23229;BME280;11783;50.350;6.576;2023-03-05T01:30:06;96510.19;;;3.30;91.03
23229;BME280;11783;50.350;6.576;2023-03-05T01:32:34;96506.75;;;3.29;91.20
23229;BME280;11783;50.350;6.576;2023-03-05T01:35:01;96503.31;;;3.29;91.43
23229;BME280;11783;50.350;6.576;2023-03-05T01:37:27;96499.06;;;3.28;91.63
23229;BME280;11783;50.350;6.576;2023-03-05T01:39:52;96494.00;;;3.26;91.35
23229;BME280;11783;50.350;6.576;2023-03-05T01:42:18;96491.56;;;3.25;91.59
23229;BME280;11783;50.350;6.576;2023-03-05T01:45:06;96489.94;;;3.24;91.71
23229;BME280;11783;50.350;6.576;2023-03-05T01:47:32;96499.63;;;3.23;91.64
23229;BME280;11783;50.350;6.576;2023-03-05T01:49:58;96489.50;;;3.20;91.78
23229;BME280;11783;50.350;6.576;2023-03-05T01:52:24;96493.75;;;3.21;91.74
23229;BME280;11783;50.350;6.576;2023-03-05T01:54:52;96487.31;;;3.24;91.50
23229;BME280;11783;50.350;6.576;2023-03-05T01:57:22;96486.06;;;3.20;91.61
23229;BME280;11783;50.350;6.576;2023-03-05T01:59:55;96481.00;;;3.18;92.02
23229;BME280;11783;50.350;6.576;2023-03-05T02:02:20;96480.19;;;3.18;92.11
23229;BME280;11783;50.350;6.576;2023-03-05T02:04:54;96470.25;;;3.13;92.85
23229;BME280;11783;50.350;6.576;2023-03-05T02:07:21;96463.38;;;3.12;92.43
23229;BME280;11783;50.350;6.576;2023-03-05T02:09:48;96459.75;;;3.13;92.18
23229;BME280;11783;50.350;6.576;2023-03-05T02:12:14;96451.88;;;3.13;92.22
23229;BME280;11783;50.350;6.576;2023-03-05T02:14:41;96458.75;;;3.14;91.58
23229;BME280;11783;50.350;6.576;2023-03-05T02:17:09;96459.56;;;3.15;91.63
23229;BME280;11783;50.350;6.576;2023-03-05T02:19:53;96454.50;;;3.13;92.30
23229;BME280;11783;50.350;6.576;2023-03-05T02:22:21;96461.38;;;3.14;91.14
23229;BME280;11783;50.350;6.576;2023-03-05T02:24:47;96452.06;;;3.12;91.48
23229;BME280;11783;50.350;6.576;2023-03-05T02:27:13;96452.69;;;3.14;91.17
23229;BME280;11783;50.350;6.576;2023-03-05T02:29:45;96445.00;;;3.12;91.18
23229;BME280;11783;50.350;6.576;2023-03-05T02:32:11;96447.00;;;3.10;91.26
23229;BME280;11783;50.350;6.576;2023-03-05T02:34:37;96447.00;;;3.10;91.50
23229;BME280;11783;50.350;6.576;2023-03-05T02:37:03;96445.19;;;3.11;91.17
23229;BME280;11783;50.350;6.576;2023-03-05T02:39:30;96439.13;;;3.10;91.26
23229;BME280;11783;50.350;6.576;2023-03-05T02:41:56;96441.31;;;3.07;92.18
23229;BME280;11783;50.350;6.576;2023-03-05T02:44:21;96429.19;;;3.06;92.18
23229;BME280;11783;50.350;6.576;2023-03-05T02:46:47;96437.88;;;3.06;91.58
23229;BME280;11783;50.350;6.576;2023-03-05T02:49:12;96431.63;;;3.07;91.12
23229;BME280;11783;50.350;6.576;2023-03-05T02:51:38;96429.81;;;3.08;91.37
23229;BME280;11783;50.350;6.576;2023-03-05T02:54:03;96418.06;;;3.03;91.66
23229;BME280;11783;50.350;6.576;2023-03-05T02:56:28;96418.88;;;3.04;91.42
23229;BME280;11783;50.350;6.576;2023-03-05T02:58:54;96410.59;;;3.00;91.38
23229;BME280;11783;50.350;6.576;2023-03-05T03:01:19;96419.06;;;3.02;91.28
23229;BME280;11783;50.350;6.576;2023-03-05T03:03:45;96417.25;;;3.03;90.95
23229;BME280;11783;50.350;6.576;2023-03-05T03:06:10;96414.22;;;2.99;90.96
23229;BME280;11783;50.350;6.576;2023-03-05T03:08:35;96414.22;;;2.99;91.86
23229;BME280;11783;50.350;6.576;2023-03-05T03:11:08;96406.97;;;3.01;91.90
23229;BME280;11783;50.350;6.576;2023-03-05T03:13:36;96415.84;;;3.00;91.78
23229;BME280;11783;50.350;6.576;2023-03-05T03:16:07;96413.22;;;3.00;90.93
23229;BME280;11783;50.350;6.576;2023-03-05T03:18:33;96412.41;;;3.00;91.02
23229;BME280;11783;50.350;6.576;2023-03-05T03:20:58;96407.69;;;2.95;91.48
23229;BME280;11783;50.350;6.576;2023-03-05T03:23:24;96412.53;;;2.92;91.99
23229;BME280;11783;50.350;6.576;2023-03-05T03:25:50;96405.47;;;2.92;92.13
23229;BME280;11783;50.350;6.576;2023-03-05T03:28:15;96414.94;;;2.93;91.10
23229;BME280;11783;50.350;6.576;2023-03-05T03:30:41;96408.91;;;2.93;91.06
23229;BME280;11783;50.350;6.576;2023-03-05T03:33:06;96408.91;;;2.93;90.74
23229;BME280;11783;50.350;6.576;2023-03-05T03:35:32;96406.47;;;2.91;91.13
23229;BME280;11783;50.350;6.576;2023-03-05T03:37:57;96404.84;;;2.90;92.20
23229;BME280;11783;50.350;6.576;2023-03-05T03:40:22;96392.72;;;2.89;92.01
23229;BME280;11783;50.350;6.576;2023-03-05T03:42:50;96394.34;;;2.90;91.10
23229;BME280;11783;50.350;6.576;2023-03-05T03:45:16;96397.78;;;2.91;90.80
23229;BME280;11783;50.350;6.576;2023-03-05T03:47:41;96400.78;;;2.88;91.15
23229;BME280;11783;50.350;6.576;2023-03-05T03:50:07;96387.84;;;2.86;91.86
23229;BME280;11783;50.350;6.576;2023-03-05T03:52:33;96394.72;;;2.87;91.16
23229;BME280;11783;50.350;6.576;2023-03-05T03:54:58;96392.91;;;2.88;90.79
23229;BME280;11783;50.350;6.576;2023-03-05T03:57:27;96382.59;;;2.86;91.13
23229;BME280;11783;50.350;6.576;2023-03-05T03:59:53;96388.66;;;2.87;90.94
23229;BME280;11783;50.350;6.576;2023-03-05T04:02:18;96377.97;;;2.88;90.63
23229;BME280;11783;50.350;6.576;2023-03-05T04:04:44;96375.72;;;2.85;90.67
23229;BME280;11783;50.350;6.576;2023-03-05T04:07:09;96370.47;;;2.85;91.17
23229;BME280;11783;50.350;6.576;2023-03-05T04:09:34;96369.88;;;2.83;91.49
23229;BME280;11783;50.350;6.576;2023-03-05T04:12:00;96373.09;;;2.85;90.89
23229;BME280;11783;50.350;6.576;2023-03-05T04:14:25;96365.63;;;2.82;90.34
23229;BME280;11783;50.350;6.576;2023-03-05T04:16:51;96356.75;;;2.83;91.86
23229;BME280;11783;50.350;6.576;2023-03-05T04:19:17;96360.78;;;2.86;90.75
23229;BME280;11783;50.350;6.576;2023-03-05T04:21:42;96363.63;;;2.84;91.08
23229;BME280;11783;50.350;6.576;2023-03-05T04:24:07;96359.38;;;2.83;91.06
23229;BME280;11783;50.350;6.576;2023-03-05T04:26:34;96367.25;;;2.83;90.57
23229;BME280;11783;50.350;6.576;2023-03-05T04:28:59;96356.13;;;2.81;90.29
23229;BME280;11783;50.350;6.576;2023-03-05T04:31:25;96355.31;;;2.81;90.44
23229;BME280;11783;50.350;6.576;2023-03-05T04:33:50;96347.44;;;2.81;90.16
23229;BME280;11783;50.350;6.576;2023-03-05T04:36:15;96346.63;;;2.80;90.44
23229;BME280;11783;50.350;6.576;2023-03-05T04:38:41;96351.22;;;2.78;91.52
23229;BME280;11783;50.350;6.576;2023-03-05T04:41:06;96347.63;;;2.79;90.18
23229;BME280;11783;50.350;6.576;2023-03-05T04:43:31;96333.66;;;2.79;90.25
23229;BME280;11783;50.350;6.576;2023-03-05T04:45:57;96337.13;;;2.79;90.14
23229;BME280;11783;50.350;6.576;2023-03-05T04:48:22;96334.50;;;2.79;90.19
23229;BME280;11783;50.350;6.576;2023-03-05T04:50:48;96340.31;;;2.74;90.40
23229;BME280;11783;50.350;6.576;2023-03-05T04:53:13;96339.06;;;2.70;89.95
23229;BME280;11783;50.350;6.576;2023-03-05T04:55:38;96330.78;;;2.67;90.84
23229;BME280;11783;50.350;6.576;2023-03-05T04:58:04;96323.53;;;2.69;91.00
23229;BME280;11783;50.350;6.576;2023-03-05T05:00:29;96320.91;;;2.69;90.79
23229;BME280;11783;50.350;6.576;2023-03-05T05:02:54;96324.72;;;2.66;91.66
23229;BME280;11783;50.350;6.576;2023-03-05T05:05:23;96313.81;;;2.63;92.31
23229;BME280;11783;50.350;6.576;2023-03-05T05:07:48;96309.78;;;2.67;90.95
23229;BME280;11783;50.350;6.576;2023-03-05T05:10:15;96318.28;;;2.69;90.59
23229;BME280;11783;50.350;6.576;2023-03-05T05:12:41;96314.84;;;2.68;90.74
23229;BME280;11783;50.350;6.576;2023-03-05T05:15:07;96315.66;;;2.69;90.60
23229;BME280;11783;50.350;6.576;2023-03-05T05:17:34;96313.22;;;2.67;90.32
23229;BME280;11783;50.350;6.576;2023-03-05T05:20:00;96306.16;;;2.68;90.47
23229;BME280;11783;50.350;6.576;2023-03-05T05:22:27;96309.97;;;2.65;90.45
23229;BME280;11783;50.350;6.576;2023-03-05T05:24:53;96304.72;;;2.65;90.40
23229;BME280;11783;50.350;6.576;2023-03-05T05:27:18;96303.94;;;2.65;91.28
23229;BME280;11783;50.350;6.576;2023-03-05T05:29:43;96304.13;;;2.63;91.36
23229;BME280;11783;50.350;6.576;2023-03-05T05:32:14;96303.94;;;2.65;90.44
23229;BME280;11783;50.350;6.576;2023-03-05T05:34:40;96307.97;;;2.67;90.11
23229;BME280;11783;50.350;6.576;2023-03-05T05:37:05;96304.53;;;2.67;90.38
23229;BME280;11783;50.350;6.576;2023-03-05T05:39:30;96303.13;;;2.64;90.24
23229;BME280;11783;50.350;6.576;2023-03-05T05:41:56;96299.69;;;2.64;90.90
23229;BME280;11783;50.350;6.576;2023-03-05T05:44:21;96303.13;;;2.64;91.07
23229;BME280;11783;50.350;6.576;2023-03-05T05:46:46;96296.44;;;2.62;90.52
23229;BME280;11783;50.350;6.576;2023-03-05T05:49:11;96302.31;;;2.64;90.29
23229;BME280;11783;50.350;6.576;2023-03-05T05:51:37;96304.13;;;2.63;90.53
23229;BME280;11783;50.350;6.576;2023-03-05T05:54:02;96316.44;;;2.63;90.23
23229;BME280;11783;50.350;6.576;2023-03-05T05:56:28;96304.13;;;2.63;90.04
23229;BME280;11783;50.350;6.576;2023-03-05T05:58:53;96295.63;;;2.61;90.48
23229;BME280;11783;50.350;6.576;2023-03-05T06:01:23;96300.88;;;2.61;90.16
23229;BME280;11783;50.350;6.576;2023-03-05T06:03:49;96295.78;;;2.60;90.34
23229;BME280;11783;50.350;6.576;2023-03-05T06:06:17;96302.03;;;2.59;90.76
23229;BME280;11783;50.350;6.576;2023-03-05T06:08:43;96292.34;;;2.59;90.85
23229;BME280;11783;50.350;6.576;2023-03-05T06:11:08;96287.31;;;2.58;90.60
23229;BME280;11783;50.350;6.576;2023-03-05T06:13:34;96294.97;;;2.59;90.70
23229;BME280;11783;50.350;6.576;2023-03-05T06:16:02;96297.44;;;2.61;90.37
23229;BME280;11783;50.350;6.576;2023-03-05T06:18:27;96299.41;;;2.59;90.54
23229;BME280;11783;50.350;6.576;2023-03-05T06:20:57;96298.06;;;2.63;90.68
23229;BME280;11783;50.350;6.576;2023-03-05T06:23:23;96295.19;;;2.58;90.68
23229;BME280;11783;50.350;6.576;2023-03-05T06:25:49;96295.19;;;2.58;90.73
23229;BME280;11783;50.350;6.576;2023-03-05T06:28:15;96294.00;;;2.60;90.46
23229;BME280;11783;50.350;6.576;2023-03-05T06:30:40;96298.81;;;2.57;90.91
23229;BME280;11783;50.350;6.576;2023-03-05T06:33:06;96300.41;;;2.58;90.33
23229;BME280;11783;50.350;6.576;2023-03-05T06:35:31;96302.03;;;2.59;90.87
23229;BME280;11783;50.350;6.576;2023-03-05T06:37:57;96295.19;;;2.58;90.86
23229;BME280;11783;50.350;6.576;2023-03-05T06:40:22;96290.75;;;2.58;91.12
23229;BME280;11783;50.350;6.576;2023-03-05T06:42:47;96289.13;;;2.57;90.65
23229;BME280;11783;50.350;6.576;2023-03-05T06:45:13;96289.31;;;2.56;90.93
23229;BME280;11783;50.350;6.576;2023-03-05T06:47:38;96290.13;;;2.56;90.70
23229;BME280;11783;50.350;6.576;2023-03-05T06:50:04;96293.56;;;2.57;90.94
23229;BME280;11783;50.350;6.576;2023-03-05T06:52:29;96288.31;;;2.57;90.61
23229;BME280;11783;50.350;6.576;2023-03-05T06:54:55;96289.94;;;2.58;90.97
23229;BME280;11783;50.350;6.576;2023-03-05T06:57:21;96298.81;;;2.57;90.73
23229;BME280;11783;50.350;6.576;2023-03-05T06:59:46;96294.38;;;2.57;90.83
23229;BME280;11783;50.350;6.576;2023-03-05T07:02:12;96294.56;;;2.56;91.11
23229;BME280;11783;50.350;6.576;2023-03-05T07:04:38;96291.94;;;2.56;90.94
23229;BME280;11783;50.350;6.576;2023-03-05T07:07:04;96285.88;;;2.55;91.01
23229;BME280;11783;50.350;6.576;2023-03-05T07:09:29;96286.28;;;2.52;91.39
23229;BME280;11783;50.350;6.576;2023-03-05T07:11:55;96282.44;;;2.55;90.71
23229;BME280;11783;50.350;6.576;2023-03-05T07:14:21;96282.84;;;2.52;91.30
23229;BME280;11783;50.350;6.576;2023-03-05T07:16:46;96286.06;;;2.54;90.99
23229;BME280;11783;50.350;6.576;2023-03-05T07:19:11;96282.44;;;2.55;90.68
23229;BME280;11783;50.350;6.576;2023-03-05T07:21:37;96281.44;;;2.56;91.63
23229;BME280;11783;50.350;6.576;2023-03-05T07:24:03;96278.41;;;2.52;91.68
23229;BME280;11783;50.350;6.576;2023-03-05T07:26:30;96278.59;;;2.51;91.71
23229;BME280;11783;50.350;6.576;2023-03-05T07:28:57;96274.78;;;2.53;91.25
23229;BME280;11783;50.350;6.576;2023-03-05T07:31:24;96278.19;;;2.54;91.25
23229;BME280;11783;50.350;6.576;2023-03-05T07:33:51;96283.88;;;2.57;91.46
23229;BME280;11783;50.350;6.576;2023-03-05T07:36:17;96271.53;;;2.51;91.71
23229;BME280;11783;50.350;6.576;2023-03-05T07:38:43;96273.53;;;2.49;92.19
23229;BME280;11783;50.350;6.576;2023-03-05T07:41:11;96279.59;;;2.50;92.06
23229;BME280;11783;50.350;6.576;2023-03-05T07:43:38;96277.16;;;2.48;92.37
23229;BME280;11783;50.350;6.576;2023-03-05T07:46:08;96278.78;;;2.49;92.89
23229;BME280;11783;50.350;6.576;2023-03-05T07:48:34;96274.53;;;2.48;92.52
23229;BME280;11783;50.350;6.576;2023-03-05T07:51:05;96277.78;;;2.50;92.83
23229;BME280;11783;50.350;6.576;2023-03-05T07:53:31;96277.97;;;2.49;92.56
23229;BME280;11783;50.350;6.576;2023-03-05T07:55:56;96285.03;;;2.48;93.39
23229;BME280;11783;50.350;6.576;2023-03-05T07:58:22;96280.97;;;2.46;93.62
23229;BME280;11783;50.350;6.576;2023-03-05T08:00:47;96278.75;;;2.42;93.91
23229;BME280;11783;50.350;6.576;2023-03-05T08:03:13;96280.56;;;2.42;94.13
23229;BME280;11783;50.350;6.576;2023-03-05T08:05:39;96274.03;;;2.38;95.61
23229;BME280;11783;50.350;6.576;2023-03-05T08:08:05;96278.69;;;2.36;95.55
23229;BME280;11783;50.350;6.576;2023-03-05T08:10:31;96272.38;;;2.30;95.24
23229;BME280;11783;50.350;6.576;2023-03-05T08:12:57;96268.53;;;2.26;94.98
23229;BME280;11783;50.350;6.576;2023-03-05T08:15:22;96263.66;;;2.23;95.50
23229;BME280;11783;50.350;6.576;2023-03-05T08:17:47;96262.22;;;2.21;95.88
23229;BME280;11783;50.350;6.576;2023-03-05T08:20:13;96261.06;;;2.23;95.67
23229;BME280;11783;50.350;6.576;2023-03-05T08:22:38;96261.22;;;2.22;95.67
23229;BME280;11783;50.350;6.576;2023-03-05T08:25:05;96257.78;;;2.21;96.26
23229;BME280;11783;50.350;6.576;2023-03-05T08:27:30;96254.97;;;2.23;95.66
23229;BME280;11783;50.350;6.576;2023-03-05T08:29:56;96250.28;;;2.18;95.74
23229;BME280;11783;50.350;6.576;2023-03-05T08:32:21;96253.72;;;2.19;96.20
23229;BME280;11783;50.350;6.576;2023-03-05T08:34:47;96251.09;;;2.19;96.30
23229;BME280;11783;50.350;6.576;2023-03-05T08:37:12;96253.09;;;2.17;95.33
23229;BME280;11783;50.350;6.576;2023-03-05T08:39:37;96246.06;;;2.17;95.93
23229;BME280;11783;50.350;6.576;2023-03-05T08:42:03;96250.06;;;2.13;96.78
23229;BME280;11783;50.350;6.576;2023-03-05T08:44:28;96246.25;;;2.16;96.72
23229;BME280;11783;50.350;6.576;2023-03-05T08:46:54;96252.72;;;2.20;96.53
23229;BME280;11783;50.350;6.576;2023-03-05T08:49:20;96248.91;;;2.22;96.15
23229;BME280;11783;50.350;6.576;2023-03-05T08:51:45;96243.84;;;2.21;96.90
23229;BME280;11783;50.350;6.576;2023-03-05T08:54:11;96246.13;;;2.24;96.37
23229;BME280;11783;50.350;6.576;2023-03-05T08:56:36;96237.69;;;2.28;95.94
23229;BME280;11783;50.350;6.576;2023-03-05T08:59:02;96237.28;;;2.31;95.49
23229;BME280;11783;50.350;6.576;2023-03-05T09:01:28;96234.72;;;2.38;95.52
23229;BME280;11783;50.350;6.576;2023-03-05T09:03:56;96232.47;;;2.35;95.52
23229;BME280;11783;50.350;6.576;2023-03-05T09:06:22;96229.03;;;2.34;95.59
23229;BME280;11783;50.350;6.576;2023-03-05T09:08:47;96227.09;;;2.43;96.52
23229;BME280;11783;50.350;6.576;2023-03-05T09:11:13;96223.47;;;2.44;95.82
23229;BME280;11783;50.350;6.576;2023-03-05T09:13:38;96220.47;;;2.47;96.92
23229;BME280;11783;50.350;6.576;2023-03-05T09:16:07;96218.06;;;2.52;93.24
23229;BME280;11783;50.350;6.576;2023-03-05T09:18:33;96212.81;;;2.52;93.21
23229;BME280;11783;50.350;6.576;2023-03-05T09:21:05;96207.97;;;2.56;93.77
23229;BME280;11783;50.350;6.576;2023-03-05T09:23:31;96207.97;;;2.56;92.99
23229;BME280;11783;50.350;6.576;2023-03-05T09:25:56;96205.97;;;2.58;92.38
23229;BME280;11783;50.350;6.576;2023-03-05T09:28:21;96204.34;;;2.57;92.07
23229;BME280;11783;50.350;6.576;2023-03-05T09:30:47;96205.25;;;2.70;92.03
23229;BME280;11783;50.350;6.576;2023-03-05T09:33:12;96202.22;;;2.73;90.24
23229;BME280;11783;50.350;6.576;2023-03-05T09:35:38;96201.84;;;2.77;90.93
23229;BME280;11783;50.350;6.576;2023-03-05T09:38:03;96196.22;;;2.80;89.21
23229;BME280;11783;50.350;6.576;2023-03-05T09:43:35;96182.53;;;2.91;88.01
23229;BME280;11783;50.350;6.576;2023-03-05T09:48:50;96182.97;;;3.01;87.32
23229;BME280;11783;50.350;6.576;2023-03-05T09:51:23;96181.97;;;3.02;84.74
23229;BME280;11783;50.350;6.576;2023-03-05T09:54:20;96184.00;;;3.07;83.94
23229;BME280;11783;50.350;6.576;2023-03-05T09:56:53;96174.31;;;3.07;82.50
23229;BME280;11783;50.350;6.576;2023-03-05T10:02:33;96170.06;;;3.13;83.63
23229;BME280;11783;50.350;6.576;2023-03-05T10:05:12;96169.25;;;3.12;82.40
23229;BME280;11783;50.350;6.576;2023-03-05T10:07:43;96170.50;;;3.16;82.61
23229;BME280;11783;50.350;6.576;2023-03-05T10:10:17;96165.06;;;3.18;81.88
23229;BME280;11783;50.350;6.576;2023-03-05T10:12:55;96161.63;;;3.17;81.29
23229;BME280;11783;50.350;6.576;2023-03-05T10:18:53;96159.81;;;3.24;81.24
23229;BME280;11783;50.350;6.576;2023-03-05T10:21:30;96161.84;;;3.22;82.40
23229;BME280;11783;50.350;6.576;2023-03-05T10:29:51;96151.16;;;3.37;82.24
23229;BME280;11783;50.350;6.576;2023-03-05T10:38:10;96152.16;;;3.43;82.43
23229;BME280;11783;50.350;6.576;2023-03-05T10:40:50;96145.09;;;3.43;81.27
23229;BME280;11783;50.350;6.576;2023-03-05T10:43:25;96144.09;;;3.38;81.00
23229;BME280;11783;50.350;6.576;2023-03-05T10:46:03;96142.44;;;3.30;80.89
23229;BME280;11783;50.350;6.576;2023-03-05T10:48:54;96135.97;;;3.26;81.22
23229;BME280;11783;50.350;6.576;2023-03-05T10:54:24;96136.41;;;3.36;81.09
23229;BME280;11783;50.350;6.576;2023-03-05T10:59:28;96127.72;;;3.42;80.44
23229;BME280;11783;50.350;6.576;2023-03-05T11:02:02;96122.88;;;3.46;81.27
23229;BME280;11783;50.350;6.576;2023-03-05T11:04:29;96119.84;;;3.49;82.46
23229;BME280;11783;50.350;6.576;2023-03-05T11:07:05;96125.72;;;3.57;81.30
23229;BME280;11783;50.350;6.576;2023-03-05T11:09:30;96107.13;;;3.59;81.16
23229;BME280;11783;50.350;6.576;2023-03-05T11:12:19;96112.97;;;3.61;80.36
23229;BME280;11783;50.350;6.576;2023-03-05T11:17:30;96103.69;;;3.78;78.92
23229;BME280;11783;50.350;6.576;2023-03-05T11:20:02;96104.28;;;3.80;79.38
23229;BME280;11783;50.350;6.576;2023-03-05T11:23:01;96097.19;;;3.87;79.70
23229;BME280;11783;50.350;6.576;2023-03-05T11:25:27;96101.03;;;3.91;78.05
23229;BME280;11783;50.350;6.576;2023-03-05T11:27:55;96102.88;;;3.91;79.83
23229;BME280;11783;50.350;6.576;2023-03-05T11:30:26;96103.84;;;3.90;79.36
23229;BME280;11783;50.350;6.576;2023-03-05T11:33:19;96099.00;;;3.87;77.87
23229;BME280;11783;50.350;6.576;2023-03-05T11:35:46;96105.50;;;3.78;77.43
23229;BME280;11783;50.350;6.576;2023-03-05T11:40:45;96107.72;;;3.61;78.47
23229;BME280;11783;50.350;6.576;2023-03-05T11:43:16;96097.81;;;3.50;79.00
23229;BME280;11783;50.350;6.576;2023-03-05T11:45:43;96115.19;;;3.51;78.98
23229;BME280;11783;50.350;6.576;2023-03-05T11:48:20;96101.03;;;3.45;79.19
23229;BME280;11783;50.350;6.576;2023-03-05T11:50:53;96103.88;;;3.44;79.65
23229;BME280;11783;50.350;6.576;2023-03-05T11:53:28;96100.44;;;3.43;80.04
23229;BME280;11783;50.350;6.576;2023-03-05T11:56:32;96097.00;;;3.43;80.19
23229;BME280;11783;50.350;6.576;2023-03-05T11:59:06;96096.81;;;3.38;81.12
23229;BME280;11783;50.350;6.576;2023-03-05T12:01:41;96085.47;;;3.44;81.89
23229;BME280;11783;50.350;6.576;2023-03-05T12:04:07;96084.66;;;3.50;80.74
23229;BME280;11783;50.350;6.576;2023-03-05T12:07:00;96088.31;;;3.49;80.23
23229;BME280;11783;50.350;6.576;2023-03-05T12:09:39;96083.88;;;3.43;80.71
23229;BME280;11783;50.350;6.576;2023-03-05T12:12:15;96081.66;;;3.40;82.04
23229;BME280;11783;50.350;6.576;2023-03-05T12:17:19;96072.56;;;3.36;82.82
23229;BME280;11783;50.350;6.576;2023-03-05T12:20:13;96064.06;;;3.40;82.72
23229;BME280;11783;50.350;6.576;2023-03-05T12:22:42;96065.06;;;3.39;82.41
23229;BME280;11783;50.350;6.576;2023-03-05T12:25:45;96055.59;;;3.38;83.79
23229;BME280;11783;50.350;6.576;2023-03-05T12:31:26;96053.56;;;3.40;83.62
23229;BME280;11783;50.350;6.576;2023-03-05T12:33:51;96051.13;;;3.45;84.30
23229;BME280;11783;50.350;6.576;2023-03-05T12:38:48;96044.84;;;3.46;84.20
23229;BME280;11783;50.350;6.576;2023-03-05T12:46:33;96013.72;;;3.50;84.35
23229;BME280;11783;50.350;6.576;2023-03-05T12:49:13;96005.84;;;3.56;83.73
23229;BME280;11783;50.350;6.576;2023-03-05T12:51:48;96003.81;;;3.58;82.62
23229;BME280;11783;50.350;6.576;2023-03-05T12:54:21;95985.03;;;3.61;83.52
23229;BME280;11783;50.350;6.576;2023-03-05T12:56:47;95988.84;;;3.65;83.01
23229;BME280;11783;50.350;6.576;2023-03-05T12:59:17;95978.13;;;3.67;83.84
23229;BME280;11783;50.350;6.576;2023-03-05T13:02:03;95979.31;;;3.78;84.29
23229;BME280;11783;50.350;6.576;2023-03-05T13:04:40;95974.63;;;3.86;83.35
23229;BME280;11783;50.350;6.576;2023-03-05T13:07:16;95978.50;;;3.90;81.06
23229;BME280;11783;50.350;6.576;2023-03-05T13:09:54;95973.63;;;3.87;81.96
23229;BME280;11783;50.350;6.576;2023-03-05T13:12:21;95963.91;;;3.88;81.55
23229;BME280;11783;50.350;6.576;2023-03-05T13:19:53;95954.25;;;3.75;81.23
23229;BME280;11783;50.350;6.576;2023-03-05T13:22:18;95954.47;;;3.74;80.98
23229;BME280;11783;50.350;6.576;2023-03-05T13:24:44;95951.84;;;3.74;81.71
23229;BME280;11783;50.350;6.576;2023-03-05T13:27:30;95950.84;;;3.75;81.07
23229;BME280;11783;50.350;6.576;2023-03-05T13:29:56;95951.63;;;3.69;81.06
23229;BME280;11783;50.350;6.576;2023-03-05T13:32:30;95961.34;;;3.68;81.30
23229;BME280;11783;50.350;6.576;2023-03-05T13:34:58;95947.63;;;3.59;81.87
23229;BME280;11783;50.350;6.576;2023-03-05T13:37:26;95946.03;;;3.58;82.81
23229;BME280;11783;50.350;6.576;2023-03-05T13:39:56;95947.84;;;3.58;82.51
23229;BME280;11783;50.350;6.576;2023-03-05T13:42:25;95945.22;;;3.58;82.76
23229;BME280;11783;50.350;6.576;2023-03-05T13:44:57;95939.16;;;3.44;83.78
23229;BME280;11783;50.350;6.576;2023-03-05T13:47:26;95941.00;;;3.44;84.53
23229;BME280;11783;50.350;6.576;2023-03-05T13:50:02;95936.34;;;3.46;84.38
23229;BME280;11783;50.350;6.576;2023-03-05T13:52:32;95931.09;;;3.46;84.67
23229;BME280;11783;50.350;6.576;2023-03-05T13:54:58;95925.81;;;3.46;84.78
23229;BME280;11783;50.350;6.576;2023-03-05T13:57:48;95932.13;;;3.38;85.59
23229;BME280;11783;50.350;6.576;2023-03-05T14:00:28;95923.81;;;3.41;85.60
23229;BME280;11783;50.350;6.576;2023-03-05T14:02:56;95924.03;;;3.40;85.77
23229;BME280;11783;50.350;6.576;2023-03-05T14:05:21;95924.25;;;3.38;85.99
23229;BME280;11783;50.350;6.576;2023-03-05T14:07:49;95919.19;;;3.37;85.58